Time;durP1;ratioP1;P1;durP2;ratioP2;P2;SDS_P1;SDS_P2;PMS_P1;PMS_P2;Temp;Humidity;BMP_temperature;BMP_pressure;BME280_temperature;BME280_humidity;BME280_pressure;Samples;Min_cycle;Max_cycle;Signal;HPM_P1;HPM_P2
2023/09/10 00:01:10;;;;;;;17.00;15.30;;;18.70;99.90;;;;;;4986961;28;20042;-79
2023/09/10 00:03:36;;;;;;;15.55;13.95;;;18.80;99.90;;;;;;4988657;28;20042;-79
2023/09/10 00:06:06;;;;;;;15.98;14.38;;;18.70;99.90;;;;;;4993855;28;20056;-79
2023/09/10 00:08:32;;;;;;;17.02;15.15;;;18.60;99.90;;;;;;4979850;28;20062;-79
2023/09/10 00:10:58;;;;;;;17.98;16.17;;;18.50;99.90;;;;;;4995628;28;20045;-79
2023/09/10 00:13:24;;;;;;;17.02;15.30;;;18.50;99.90;;;;;;4977284;28;20120;-79
2023/09/10 00:15:54;;;;;;;17.10;15.40;;;18.60;99.90;;;;;;4994045;28;20042;-80
2023/09/10 00:18:21;;;;;;;17.90;16.00;;;18.60;99.90;;;;;;4995757;28;20066;-79
2023/09/10 00:20:47;;;;;;;16.98;15.18;;;18.60;99.90;;;;;;4995622;28;20037;-79
2023/09/10 00:23:13;;;;;;;16.35;14.75;;;18.60;99.90;;;;;;4994800;28;20458;-79
2023/09/10 00:25:39;;;;;;;16.83;15.10;;;18.60;99.90;;;;;;4994398;28;20523;-79
2023/09/10 00:28:05;;;;;;;15.50;13.77;;;18.60;99.90;;;;;;4997413;28;20038;-79
2023/09/10 00:30:31;;;;;;;15.55;12.27;;;18.60;99.90;;;;;;4992026;28;20045;-79
2023/09/10 00:32:56;;;;;;;9.90;8.77;;;18.60;99.90;;;;;;4988632;28;20403;-79
2023/09/10 00:35:22;;;;;;;9.10;8.20;;;18.60;99.90;;;;;;4974184;28;20096;-79
2023/09/10 00:37:47;;;;;;;15.27;11.10;;;18.50;99.90;;;;;;4992452;28;20053;-79
2023/09/10 00:40:13;;;;;;;11.38;10.25;;;18.60;99.90;;;;;;4992932;28;20536;-79
2023/09/10 00:42:39;;;;;;;13.25;11.93;;;18.50;99.90;;;;;;4992621;28;20078;-79
2023/09/10 00:45:10;;;;;;;11.25;10.02;;;18.50;99.90;;;;;;4977592;28;20045;-79
2023/09/10 00:47:40;;;;;;;11.85;10.63;;;18.40;99.90;;;;;;4995366;28;20057;-79
2023/09/10 00:50:09;;;;;;;17.55;11.15;;;18.40;99.90;;;;;;4995562;28;20046;-79
2023/09/10 00:52:36;;;;;;;12.73;11.40;;;18.40;99.90;;;;;;4997542;28;20049;-79
2023/09/10 00:55:04;;;;;;;12.18;10.80;;;18.30;99.90;;;;;;4990386;28;20038;-81
2023/09/10 00:57:29;;;;;;;9.95;8.90;;;18.30;99.90;;;;;;4993302;28;20314;-79
2023/09/10 00:59:56;;;;;;;11.00;9.75;;;18.30;99.90;;;;;;4996387;28;20054;-79
2023/09/10 01:02:22;;;;;;;11.77;10.57;;;18.20;99.90;;;;;;4975346;28;20129;-79
2023/09/10 01:04:47;;;;;;;11.13;9.98;;;18.20;99.90;;;;;;4992578;28;20084;-80
2023/09/10 01:07:13;;;;;;;11.20;9.93;;;18.20;99.90;;;;;;4992123;28;20034;-79
2023/09/10 01:09:39;;;;;;;11.02;9.65;;;18.20;99.90;;;;;;4994312;28;20039;-79
2023/09/10 01:12:12;;;;;;;12.93;9.50;;;18.10;99.90;;;;;;4994539;28;20505;-79
2023/09/10 01:14:48;;;;;;;10.70;9.60;;;18.10;99.90;;;;;;4987198;28;20034;-80
2023/09/10 01:17:17;;;;;;;14.57;12.25;;;18.10;99.90;;;;;;4973235;28;20054;-80
2023/09/10 01:19:52;;;;;;;14.05;12.60;;;18.00;99.90;;;;;;4993323;28;20050;-79
2023/09/10 01:22:54;;;;;;;14.38;12.05;;;18.00;99.90;;;;;;4989312;28;20090;-79
2023/09/10 01:25:21;;;;;;;14.45;12.95;;;18.00;99.90;;;;;;4990435;28;20101;-81
2023/09/10 01:27:47;;;;;;;15.43;12.60;;;17.90;99.90;;;;;;4989547;28;20034;-79
2023/09/10 01:30:12;;;;;;;16.27;13.20;;;17.90;99.90;;;;;;4991353;28;20034;-80
2023/09/10 01:32:47;;;;;;;13.93;12.43;;;17.90;99.90;;;;;;4991985;28;20042;-81
2023/09/10 01:35:19;;;;;;;13.50;12.10;;;17.80;99.90;;;;;;4979135;28;20038;-79
2023/09/10 01:38:09;;;;;;;14.75;13.25;;;17.60;99.90;;;;;;4991632;28;20082;-78
2023/09/10 01:40:51;;;;;;;15.20;13.60;;;17.60;99.90;;;;;;4976367;28;20038;-78
2023/09/10 01:43:18;;;;;;;15.00;13.40;;;17.60;99.90;;;;;;4995883;28;20077;-80
2023/09/10 01:45:45;;;;;;;14.70;13.00;;;17.60;99.90;;;;;;4986824;28;20066;-79
2023/09/10 01:48:10;;;;;;;14.30;12.15;;;17.60;99.90;;;;;;4978852;28;20038;-79
2023/09/10 01:50:36;;;;;;;14.35;12.07;;;17.60;99.90;;;;;;4975055;28;20053;-79
2023/09/10 01:53:02;;;;;;;15.23;12.45;;;17.60;99.90;;;;;;4999027;28;20061;-79
2023/09/10 01:55:27;;;;;;;13.57;10.65;;;17.60;99.90;;;;;;4998365;28;20034;-79
2023/09/10 01:57:58;;;;;;;11.90;10.73;;;17.60;99.90;;;;;;4997089;28;20130;-79
2023/09/10 02:00:24;;;;;;;13.00;11.45;;;17.60;99.90;;;;;;4981583;28;20528;-79
2023/09/10 02:02:50;;;;;;;12.65;11.38;;;17.50;99.90;;;;;;4982751;28;20093;-80
2023/09/10 02:05:15;;;;;;;11.98;10.77;;;17.50;99.90;;;;;;4997867;28;20042;-79
2023/09/10 02:07:41;;;;;;;13.07;11.77;;;17.50;99.90;;;;;;4996284;28;20034;-79
2023/09/10 02:10:07;;;;;;;19.58;13.95;;;17.50;99.90;;;;;;4993733;28;20129;-79
2023/09/10 02:12:36;;;;;;;15.52;13.93;;;17.40;99.90;;;;;;4976285;28;20048;-79
2023/09/10 02:15:03;;;;;;;17.38;14.48;;;17.40;99.90;;;;;;4993014;28;20046;-79
2023/09/10 02:17:29;;;;;;;15.45;13.85;;;17.40;99.90;;;;;;4992616;28;20077;-80
2023/09/10 02:19:54;;;;;;;16.63;14.85;;;17.40;99.90;;;;;;4994298;28;20038;-79
2023/09/10 02:22:20;;;;;;;16.23;14.63;;;17.40;99.90;;;;;;4994702;28;20421;-79
2023/09/10 02:24:50;;;;;;;15.90;14.23;;;17.40;99.90;;;;;;4994251;28;20518;-79
2023/09/10 02:27:16;;;;;;;16.95;15.23;;;17.40;99.90;;;;;;4978944;28;20061;-79
2023/09/10 02:29:41;;;;;;;18.15;16.25;;;17.30;99.90;;;;;;4993811;28;20046;-80
2023/09/10 02:32:07;;;;;;;20.10;17.58;;;17.30;99.90;;;;;;4993383;28;20053;-79
2023/09/10 02:34:32;;;;;;;15.20;13.60;;;17.30;99.90;;;;;;4993494;28;20038;-80
2023/09/10 02:36:59;;;;;;;17.05;13.68;;;17.30;99.90;;;;;;4992903;28;20049;-79
2023/09/10 02:39:25;;;;;;;16.98;15.23;;;17.10;99.90;;;;;;4992573;28;20468;-80
2023/09/10 02:41:50;;;;;;;18.17;16.27;;;17.10;99.90;;;;;;4975137;28;20077;-79
2023/09/10 02:44:16;;;;;;;19.17;16.98;;;17.10;99.90;;;;;;4993767;28;20034;-80
2023/09/10 02:46:41;;;;;;;21.10;18.50;;;17.10;99.90;;;;;;4990710;28;20057;-80
2023/09/10 02:49:07;;;;;;;20.20;18.10;;;17.10;99.90;;;;;;4993146;28;20030;-79
2023/09/10 02:51:32;;;;;;;19.58;17.45;;;17.10;99.90;;;;;;4990326;28;20145;-80
2023/09/10 02:53:58;;;;;;;18.85;16.85;;;17.20;99.90;;;;;;4991147;28;20038;-80
2023/09/10 02:56:24;;;;;;;20.92;18.70;;;17.20;99.90;;;;;;4975556;28;20046;-80
2023/09/10 02:58:49;;;;;;;20.02;17.63;;;17.20;99.90;;;;;;4992090;28;20049;-80
2023/09/10 03:01:14;;;;;;;20.40;17.40;;;17.20;99.90;;;;;;4992442;28;20050;-79
2023/09/10 03:03:40;;;;;;;22.88;20.40;;;17.20;99.90;;;;;;4991896;28;20042;-79
2023/09/10 03:06:12;;;;;;;20.73;18.48;;;17.20;99.90;;;;;;4995438;28;20038;-80
2023/09/10 03:08:38;;;;;;;23.45;20.95;;;17.20;99.90;;;;;;4995157;28;20049;-80
2023/09/10 03:11:04;;;;;;;20.08;17.95;;;17.10;99.90;;;;;;4995788;28;20498;-80
2023/09/10 03:13:30;;;;;;;21.77;19.58;;;17.20;99.90;;;;;;4995429;28;20461;-80
2023/09/10 03:15:55;;;;;;;23.80;20.60;;;17.10;99.90;;;;;;4994381;28;20043;-79
2023/09/10 03:18:21;;;;;;;29.25;23.88;;;17.10;99.90;;;;;;4993318;28;20042;-80
2023/09/10 03:20:46;;;;;;;26.83;23.90;;;17.10;99.90;;;;;;4992759;28;20045;-79
2023/09/10 03:23:12;;;;;;;25.83;23.05;;;17.10;99.90;;;;;;4995440;28;20038;-79
2023/09/10 03:25:39;;;;;;;23.90;21.30;;;17.10;99.90;;;;;;4994579;28;20311;-79
2023/09/10 03:28:05;;;;;;;22.00;19.70;;;17.10;99.90;;;;;;4979935;28;20134;-80
2023/09/10 03:30:30;;;;;;;23.10;20.73;;;17.10;99.90;;;;;;4979012;28;20062;-79
2023/09/10 03:32:56;;;;;;;22.20;19.35;;;17.10;99.90;;;;;;4995670;28;20049;-79
2023/09/10 03:35:21;;;;;;;17.30;14.80;;;17.10;99.90;;;;;;4993305;28;20089;-80
2023/09/10 03:37:47;;;;;;;13.73;11.43;;;17.10;99.90;;;;;;4993718;28;20038;-79
2023/09/10 03:40:12;;;;;;;12.57;11.38;;;17.00;99.90;;;;;;4994190;28;20049;-80
2023/09/10 03:42:38;;;;;;;18.80;16.80;;;16.90;99.90;;;;;;4991923;28;20046;-79
2023/09/10 03:45:04;;;;;;;23.10;20.60;;;16.90;99.90;;;;;;4994484;28;20058;-79
2023/09/10 03:47:33;;;;;;;23.25;20.75;;;16.90;99.90;;;;;;4994446;28;20065;-80
2023/09/10 03:49:59;;;;;;;24.45;21.25;;;16.90;99.90;;;;;;4993573;28;20038;-80
2023/09/10 03:52:25;;;;;;;23.98;20.98;;;16.80;99.90;;;;;;4993614;28;20524;-80
2023/09/10 03:54:50;;;;;;;25.80;21.33;;;16.80;99.90;;;;;;4993566;28;20433;-80
2023/09/10 03:57:15;;;;;;;23.20;19.42;;;16.80;99.90;;;;;;4992666;28;20569;-80
2023/09/10 03:59:41;;;;;;;20.40;18.30;;;16.70;99.90;;;;;;4994910;28;20125;-80
2023/09/10 04:02:07;;;;;;;20.45;18.35;;;16.70;99.90;;;;;;4992397;28;20038;-80
2023/09/10 04:04:33;;;;;;;20.83;18.65;;;16.60;99.90;;;;;;4978491;28;20091;-80
2023/09/10 04:06:59;;;;;;;19.60;17.55;;;16.60;99.90;;;;;;4991587;28;20073;-80
2023/09/10 04:09:25;;;;;;;20.30;18.17;;;16.60;99.90;;;;;;4980207;28;20047;-80
2023/09/10 04:11:50;;;;;;;18.42;16.63;;;16.60;99.90;;;;;;4977742;28;20038;-79
2023/09/10 04:14:16;;;;;;;18.52;16.85;;;16.60;99.90;;;;;;5010627;28;20049;-80
2023/09/10 04:16:41;;;;;;;17.05;15.25;;;16.50;99.90;;;;;;4992203;28;20038;-80
2023/09/10 04:19:07;;;;;;;15.55;14.15;;;16.50;99.90;;;;;;4991075;28;20106;-80
2023/09/10 04:21:34;;;;;;;17.08;15.52;;;16.50;99.90;;;;;;4993896;28;20042;-80
2023/09/10 04:23:59;;;;;;;17.40;15.70;;;16.50;99.90;;;;;;4993316;28;20521;-80
2023/09/10 04:26:25;;;;;;;18.17;16.48;;;16.40;99.90;;;;;;4988185;28;20117;-80
2023/09/10 04:28:51;;;;;;;18.38;16.55;;;16.40;99.90;;;;;;4992838;28;20096;-80
2023/09/10 04:31:17;;;;;;;17.55;15.88;;;16.40;99.90;;;;;;4991899;28;20047;-80
2023/09/10 04:33:42;;;;;;;15.50;14.00;;;16.40;99.90;;;;;;4992566;28;20405;-80
2023/09/10 04:36:08;;;;;;;16.48;14.82;;;16.40;99.90;;;;;;4977728;28;20074;-80
2023/09/10 04:38:33;;;;;;;18.83;16.92;;;16.40;99.90;;;;;;4992614;28;20453;-80
2023/09/10 04:40:59;;;;;;;20.23;18.15;;;16.40;99.90;;;;;;4992748;28;20050;-80
2023/09/10 04:43:25;;;;;;;20.00;18.02;;;16.40;99.90;;;;;;4992257;28;20089;-80
2023/09/10 04:45:50;;;;;;;14.75;13.35;;;16.40;99.90;;;;;;4985172;28;20095;-79
2023/09/10 04:48:17;;;;;;;13.43;12.23;;;16.30;99.90;;;;;;4989975;28;20049;-80
2023/09/10 04:50:43;;;;;;;12.88;11.60;;;16.30;99.90;;;;;;4991151;28;20525;-80
2023/09/10 04:53:10;;;;;;;13.23;11.75;;;16.30;99.90;;;;;;4988082;28;20038;-79
2023/09/10 04:55:35;;;;;;;12.25;11.15;;;16.30;99.90;;;;;;4991649;28;20066;-80
2023/09/10 04:58:01;;;;;;;14.88;13.43;;;16.20;99.90;;;;;;4991791;28;20437;-80
2023/09/10 05:00:27;;;;;;;17.35;15.75;;;16.20;99.90;;;;;;4992787;28;20413;-80
2023/09/10 05:02:52;;;;;;;17.50;15.90;;;16.20;99.90;;;;;;4992039;28;20046;-80
2023/09/10 05:05:18;;;;;;;16.20;14.50;;;16.20;99.90;;;;;;4985788;28;20344;-80
2023/09/10 05:07:47;;;;;;;17.35;15.80;;;16.10;99.90;;;;;;4985458;28;20042;-80
2023/09/10 05:10:12;;;;;;;17.88;16.13;;;16.10;99.90;;;;;;4992134;28;20034;-80
2023/09/10 05:12:38;;;;;;;16.63;15.13;;;16.10;99.90;;;;;;4990357;28;20041;-80
2023/09/10 05:15:04;;;;;;;17.95;16.23;;;16.10;99.90;;;;;;4990740;28;20046;-80
2023/09/10 05:17:29;;;;;;;17.95;16.25;;;16.10;99.90;;;;;;4983285;28;20046;-79
2023/09/10 05:19:55;;;;;;;16.63;15.23;;;16.10;99.90;;;;;;4989129;28;20050;-79
2023/09/10 05:22:20;;;;;;;15.77;14.35;;;16.20;99.90;;;;;;4992250;28;20034;-79
2023/09/10 05:24:46;;;;;;;15.07;13.68;;;16.20;99.90;;;;;;4976861;28;20049;-80
2023/09/10 05:27:11;;;;;;;16.65;15.15;;;16.20;99.90;;;;;;4992026;28;20030;-80
2023/09/10 05:29:37;;;;;;;16.05;14.73;;;16.20;99.90;;;;;;4992654;28;20148;-79
2023/09/10 05:32:03;;;;;;;17.10;15.60;;;16.20;99.90;;;;;;4973744;28;20442;-80
2023/09/10 05:34:28;;;;;;;19.30;17.60;;;16.20;99.90;;;;;;4976780;28;20039;-80
2023/09/10 05:36:54;;;;;;;18.85;17.25;;;16.30;99.90;;;;;;4992548;28;20509;-79
2023/09/10 05:39:19;;;;;;;19.45;17.75;;;16.30;99.90;;;;;;4990760;28;20133;-80
2023/09/10 05:41:45;;;;;;;20.52;18.65;;;16.30;99.90;;;;;;4975376;28;20045;-80
2023/09/10 05:44:10;;;;;;;22.00;19.70;;;16.40;99.90;;;;;;4990302;28;20146;-79
2023/09/10 05:46:36;;;;;;;21.45;19.25;;;16.40;99.90;;;;;;4991130;28;20435;-79
2023/09/10 05:49:01;;;;;;;22.35;19.67;;;16.40;99.90;;;;;;4989419;28;20509;-81
2023/09/10 05:51:27;;;;;;;20.63;18.63;;;16.40;99.90;;;;;;4990268;28;20124;-80
2023/09/10 05:53:53;;;;;;;20.85;18.80;;;16.40;99.90;;;;;;4976181;28;20129;-80
2023/09/10 05:56:19;;;;;;;24.90;22.23;;;16.50;99.90;;;;;;4992032;28;20062;-80
2023/09/10 05:58:44;;;;;;;23.30;21.00;;;16.50;99.90;;;;;;4975771;28;20544;-80
2023/09/10 06:01:10;;;;;;;23.15;20.65;;;16.60;99.90;;;;;;4992419;28;20387;-80
2023/09/10 06:03:35;;;;;;;22.45;20.27;;;16.70;99.90;;;;;;4984439;28;20172;-79
2023/09/10 06:06:01;;;;;;;24.60;21.95;;;16.80;99.90;;;;;;4968151;28;20089;-81
2023/09/10 06:08:29;;;;;;;23.95;21.55;;;16.80;99.90;;;;;;4986242;28;20039;-80
2023/09/10 06:10:54;;;;;;;23.73;21.42;;;16.90;99.90;;;;;;4984912;28;20038;-80
2023/09/10 06:13:20;;;;;;;23.10;21.00;;;16.90;99.90;;;;;;4992628;28;20054;-80
2023/09/10 06:15:45;;;;;;;23.67;21.40;;;17.00;99.90;;;;;;4992402;28;20125;-80
2023/09/10 06:18:11;;;;;;;23.05;20.83;;;17.10;99.90;;;;;;4992624;28;20134;-79
2023/09/10 06:20:37;;;;;;;24.80;22.50;;;17.10;99.90;;;;;;4991980;28;20507;-80
2023/09/10 06:23:02;;;;;;;25.38;22.98;;;17.20;99.90;;;;;;4992479;28;20061;-80
2023/09/10 06:25:28;;;;;;;25.77;23.08;;;17.30;99.90;;;;;;4992769;28;20038;-80
2023/09/10 06:27:54;;;;;;;30.73;27.52;;;17.40;99.90;;;;;;4991507;28;20804;-78
2023/09/10 06:30:19;;;;;;;34.50;30.65;;;17.50;99.90;;;;;;4991479;28;20116;-79
2023/09/10 06:32:44;;;;;;;38.22;34.13;;;17.50;99.90;;;;;;4993160;28;20064;-79
2023/09/10 06:35:13;;;;;;;38.08;34.08;;;17.60;99.90;;;;;;4991969;28;20100;-79
2023/09/10 06:37:39;;;;;;;36.17;32.22;;;17.70;99.90;;;;;;4992000;28;20543;-79
2023/09/10 06:40:06;;;;;;;33.90;30.27;;;17.70;99.90;;;;;;4991608;28;20513;-80
2023/09/10 06:42:31;;;;;;;31.58;28.17;;;17.80;99.90;;;;;;4991293;28;20042;-80
2023/09/10 06:44:57;;;;;;;33.58;29.98;;;17.80;99.90;;;;;;4989930;28;20129;-80
2023/09/10 06:47:23;;;;;;;36.63;30.65;;;17.90;99.90;;;;;;4984387;28;20663;-80
2023/09/10 06:49:48;;;;;;;34.58;29.95;;;18.00;99.90;;;;;;4989755;28;20134;-80
2023/09/10 06:52:13;;;;;;;37.35;32.70;;;18.10;99.90;;;;;;4986348;28;20450;-80
2023/09/10 06:54:39;;;;;;;35.45;31.65;;;18.20;99.90;;;;;;4987862;28;20093;-80
2023/09/10 06:57:05;;;;;;;35.83;32.03;;;18.30;99.90;;;;;;4982958;28;20050;-80
2023/09/10 06:59:30;;;;;;;35.38;31.20;;;18.40;99.90;;;;;;4985893;28;20038;-79
2023/09/10 07:01:56;;;;;;;33.45;29.88;;;18.50;99.90;;;;;;4986252;28;20046;-80
2023/09/10 07:04:23;;;;;;;35.25;31.33;;;18.60;99.90;;;;;;4989039;28;20042;-80
2023/09/10 07:06:50;;;;;;;36.85;30.77;;;18.80;99.90;;;;;;4982508;28;20090;-81
2023/09/10 07:09:21;;;;;;;35.35;31.25;;;18.90;99.90;;;;;;4988240;28;20042;-80
2023/09/10 07:11:50;;;;;;;34.25;30.65;;;19.00;99.90;;;;;;4980782;28;20578;-80
2023/09/10 07:14:16;;;;;;;34.30;30.23;;;19.20;99.90;;;;;;4985684;28;20651;-80
2023/09/10 07:16:42;;;;;;;35.95;30.23;;;19.30;99.90;;;;;;4992882;28;20042;-81
2023/09/10 07:19:07;;;;;;;37.47;31.60;;;19.40;99.90;;;;;;4991380;28;20074;-80
2023/09/10 07:21:33;;;;;;;35.67;31.38;;;19.60;99.90;;;;;;4992473;28;20042;-80
2023/09/10 07:23:58;;;;;;;35.60;31.60;;;19.70;99.90;;;;;;4976231;28;20043;-81
2023/09/10 07:26:24;;;;;;;36.90;31.02;;;19.80;99.90;;;;;;4993234;28;20133;-81
2023/09/10 07:28:49;;;;;;;35.28;31.42;;;20.00;99.90;;;;;;4991173;28;20053;-81
2023/09/10 07:31:15;;;;;;;35.53;30.80;;;20.10;99.90;;;;;;4992086;28;20569;-80
2023/09/10 07:33:46;;;;;;;31.55;27.92;;;20.20;99.90;;;;;;4992406;28;20054;-81
2023/09/10 07:36:11;;;;;;;36.50;29.77;;;20.30;99.90;;;;;;4993025;28;20113;-80
2023/09/10 07:38:37;;;;;;;32.35;28.85;;;20.50;99.90;;;;;;4977183;28;20116;-81
2023/09/10 07:41:03;;;;;;;32.80;28.73;;;20.60;99.90;;;;;;4992966;28;20098;-80
2023/09/10 07:43:28;;;;;;;34.00;29.15;;;20.80;99.90;;;;;;4992861;28;20043;-81
2023/09/10 07:45:54;;;;;;;32.45;29.15;;;20.90;99.90;;;;;;4992999;28;20037;-80
2023/09/10 07:48:19;;;;;;;33.67;29.98;;;21.00;99.90;;;;;;5000908;28;20035;-81
2023/09/10 07:50:56;;;;;;;31.10;27.73;;;21.10;99.90;;;;;;4976577;28;20042;-79
2023/09/10 07:53:21;;;;;;;31.30;27.90;;;21.20;99.90;;;;;;4996492;28;20108;-81
2023/09/10 07:55:47;;;;;;;32.38;27.90;;;21.40;99.90;;;;;;4990400;28;20034;-81
2023/09/10 07:58:12;;;;;;;34.20;30.60;;;21.50;99.90;;;;;;4997989;28;20042;-81
2023/09/10 08:00:38;;;;;;;31.10;27.80;;;21.60;99.90;;;;;;4997659;28;20038;-79
2023/09/10 08:03:06;;;;;;;30.23;27.10;;;21.60;99.90;;;;;;4993053;28;20034;-79
2023/09/10 08:05:33;;;;;;;31.20;26.08;;;21.80;99.90;;;;;;4992786;28;20048;-79
2023/09/10 08:08:02;;;;;;;27.98;24.95;;;21.90;99.90;;;;;;4992940;28;20512;-78
2023/09/10 08:10:32;;;;;;;29.88;26.88;;;22.00;99.90;;;;;;4993088;28;20035;-79
2023/09/10 08:12:58;;;;;;;28.15;25.30;;;22.10;99.90;;;;;;4993255;28;20093;-79
2023/09/10 08:15:24;;;;;;;31.73;26.77;;;22.30;99.90;;;;;;4985534;28;20461;-79
2023/09/10 08:17:52;;;;;;;27.95;24.95;;;22.30;99.90;;;;;;4992941;28;20042;-78
2023/09/10 08:20:17;;;;;;;28.17;25.20;;;22.40;99.90;;;;;;4992702;28;20050;-80
2023/09/10 08:22:43;;;;;;;27.90;23.25;;;22.60;99.90;;;;;;4992710;28;20038;-80
2023/09/10 08:25:09;;;;;;;25.83;22.75;;;22.70;99.90;;;;;;4991011;28;20038;-80
2023/09/10 08:27:37;;;;;;;24.70;22.10;;;22.80;99.90;;;;;;4987498;28;20038;-79
2023/09/10 08:30:05;;;;;;;24.95;21.95;;;22.90;99.90;;;;;;4991142;28;20030;-80
2023/09/10 08:32:31;;;;;;;22.90;20.05;;;22.90;99.90;;;;;;4990784;28;20050;-79
2023/09/10 08:34:57;;;;;;;22.60;20.38;;;23.00;99.90;;;;;;4991683;28;20117;-79
2023/09/10 08:37:22;;;;;;;24.20;21.33;;;23.10;99.90;;;;;;4976890;28;20049;-79
2023/09/10 08:39:48;;;;;;;22.90;19.25;;;23.20;99.90;;;;;;4992407;28;20045;-79
2023/09/10 08:42:40;;;;;;;20.92;18.70;;;23.40;99.90;;;;;;4973028;28;20046;-79
2023/09/10 08:45:10;;;;;;;22.55;20.08;;;23.40;99.90;;;;;;4986325;28;20038;-79
2023/09/10 08:47:41;;;;;;;22.42;20.08;;;23.50;99.90;;;;;;4979889;28;20083;-80
2023/09/10 08:50:09;;;;;;;23.00;20.48;;;23.50;99.90;;;;;;4973447;28;20569;-80
2023/09/10 08:52:41;;;;;;;20.55;18.25;;;23.60;99.90;;;;;;5004535;28;20030;-81
2023/09/10 08:55:08;;;;;;;20.85;17.55;;;23.70;99.90;;;;;;5003319;28;20046;-81
2023/09/10 08:57:37;;;;;;;20.48;18.35;;;23.70;99.90;;;;;;4991083;28;20031;-80
2023/09/10 09:00:12;;;;;;;19.98;17.98;;;23.90;99.90;;;;;;4993423;28;20049;-80
2023/09/10 09:02:45;;;;;;;21.40;18.27;;;23.90;99.90;;;;;;4992786;28;20038;-79
2023/09/10 09:05:11;;;;;;;21.88;19.23;;;24.10;99.90;;;;;;4976934;28;20041;-81
2023/09/10 09:07:54;;;;;;;19.85;17.75;;;24.00;99.90;;;;;;4973737;28;20074;-81
2023/09/10 09:10:24;;;;;;;19.23;17.27;;;24.00;99.90;;;;;;4977376;28;20042;-80
2023/09/10 09:12:54;;;;;;;19.15;17.15;;;24.10;99.90;;;;;;4975666;28;20061;-80
2023/09/10 09:15:20;;;;;;;19.23;16.30;;;24.10;99.90;;;;;;4988542;28;20125;-80
2023/09/10 09:17:47;;;;;;;17.35;15.55;;;24.20;99.90;;;;;;4991661;28;20046;-79
2023/09/10 09:20:16;;;;;;;17.67;15.90;;;24.20;99.90;;;;;;4977329;28;20042;-81
2023/09/10 09:22:46;;;;;;;22.85;17.92;;;24.20;99.90;;;;;;4992286;28;20181;-79
2023/09/10 09:25:12;;;;;;;18.95;15.73;;;24.30;99.90;;;;;;4989892;28;20217;-80
2023/09/10 09:27:38;;;;;;;18.58;15.48;;;24.30;99.90;;;;;;4991037;28;20034;-80
2023/09/10 09:30:07;;;;;;;17.92;15.88;;;24.40;99.90;;;;;;4997598;28;20038;-78
2023/09/10 09:32:37;;;;;;;17.40;15.75;;;24.40;99.90;;;;;;4988135;28;20038;-80
2023/09/10 09:35:04;;;;;;;19.17;17.17;;;24.50;99.90;;;;;;4986447;28;20520;-80
2023/09/10 09:37:33;;;;;;;18.35;16.45;;;24.50;99.90;;;;;;4990168;28;20061;-81
2023/09/10 09:40:09;;;;;;;20.15;16.50;;;24.60;99.90;;;;;;4992050;28;20510;-81
2023/09/10 09:42:36;;;;;;;18.75;15.30;;;24.60;99.90;;;;;;4990917;28;20030;-80
2023/09/10 09:45:02;;;;;;;17.73;15.93;;;24.70;99.90;;;;;;4992171;28;20034;-79
2023/09/10 09:47:29;;;;;;;24.58;17.25;;;24.70;99.90;;;;;;4989961;28;20070;-78
2023/09/10 09:49:56;;;;;;;17.58;15.60;;;24.70;99.90;;;;;;4990609;28;20524;-79
2023/09/10 09:52:22;;;;;;;17.50;15.45;;;24.80;99.90;;;;;;4990736;28;20039;-78
2023/09/10 09:54:48;;;;;;;16.52;14.90;;;24.90;99.90;;;;;;4991467;28;20084;-79
2023/09/10 09:57:14;;;;;;;16.83;14.40;;;24.90;99.90;;;;;;4990162;28;20088;-80
2023/09/10 09:59:39;;;;;;;16.33;13.70;;;24.90;99.90;;;;;;4991204;28;20046;-80
2023/09/10 10:02:05;;;;;;;16.10;14.00;;;25.00;99.90;;;;;;4990685;28;20049;-79
2023/09/10 10:04:34;;;;;;;18.48;14.40;;;25.00;99.90;;;;;;4991039;28;20030;-78
2023/09/10 10:07:01;;;;;;;14.75;12.63;;;25.10;99.90;;;;;;4989687;28;20432;-79
2023/09/10 10:09:37;;;;;;;16.02;11.90;;;25.20;99.90;;;;;;4991214;28;20049;-80
2023/09/10 10:12:04;;;;;;;15.02;12.63;;;25.20;99.90;;;;;;5002768;28;20660;-78
2023/09/10 10:14:34;;;;;;;14.43;11.38;;;25.30;99.90;;;;;;4990534;28;20053;-78
2023/09/10 10:17:02;;;;;;;18.88;12.70;;;25.30;99.90;;;;;;4988862;28;20041;-78
2023/09/10 10:19:32;;;;;;;13.50;11.02;;;25.40;99.90;;;;;;4989181;28;20042;-78
2023/09/10 10:21:58;;;;;;;15.05;11.43;;;25.50;99.90;;;;;;4988005;28;20125;-79
2023/09/10 10:24:25;;;;;;;12.30;10.95;;;25.60;99.90;;;;;;4990702;28;20109;-79
2023/09/10 10:26:54;;;;;;;13.52;12.05;;;25.70;99.90;;;;;;4990519;28;20045;-79
2023/09/10 10:29:21;;;;;;;13.32;11.63;;;25.70;99.90;;;;;;4990588;28;20046;-78
2023/09/10 10:31:54;;;;;;;11.07;9.98;;;25.80;99.90;;;;;;4987226;28;20047;-78
2023/09/10 10:34:24;;;;;;;12.02;10.82;;;25.80;99.90;;;;;;4985566;28;20054;-79
2023/09/10 10:37:12;;;;;;;12.38;10.10;;;25.90;99.90;;;;;;4978802;28;20073;-80
2023/09/10 10:39:45;;;;;;;14.55;10.25;;;26.00;99.90;;;;;;4989375;28;20786;-77
2023/09/10 10:42:14;;;;;;;12.88;9.75;;;26.10;99.90;;;;;;4989792;28;20042;-77
2023/09/10 10:44:41;;;;;;;13.30;10.15;;;26.20;99.90;;;;;;4973919;28;20081;-78
2023/09/10 10:47:18;;;;;;;11.27;9.55;;;26.20;99.90;;;;;;4990139;28;20066;-78
2023/09/10 10:49:53;;;;;;;9.65;8.48;;;26.30;99.90;;;;;;4990302;28;20058;-80
2023/09/10 10:52:30;;;;;;;12.25;9.35;;;26.50;99.90;;;;;;4990337;28;20066;-79
2023/09/10 10:54:56;;;;;;;10.93;8.63;;;26.50;99.90;;;;;;4987845;28;20030;-79
2023/09/10 10:57:23;;;;;;;14.27;9.60;;;26.50;99.90;;;;;;4982303;28;20049;-79
2023/09/10 10:59:49;;;;;;;13.63;9.38;;;26.60;99.90;;;;;;4989991;28;20395;-78
2023/09/10 11:02:23;;;;;;;13.98;10.07;;;26.70;99.90;;;;;;4989947;28;20545;-78
2023/09/10 11:04:55;;;;;;;10.32;9.10;;;26.80;99.90;;;;;;4989102;28;20046;-79
2023/09/10 11:07:22;;;;;;;12.43;9.32;;;26.90;99.90;;;;;;4989771;28;20109;-79
2023/09/10 11:09:48;;;;;;;14.75;10.25;;;27.00;99.90;;;;;;4990157;28;20096;-79
2023/09/10 11:12:14;;;;;;;10.02;8.52;;;27.10;99.90;;;;;;4991879;28;20062;-79
2023/09/10 11:14:58;;;;;;;13.05;8.98;;;27.10;99.90;;;;;;4988393;28;20070;-79
2023/09/10 11:17:29;;;;;;;11.57;9.02;;;27.30;99.90;;;;;;4992203;28;20284;-79
2023/09/10 11:19:55;;;;;;;13.77;8.77;;;27.40;99.90;;;;;;4991833;28;20042;-80
2023/09/10 11:22:21;;;;;;;9.73;8.82;;;27.40;99.90;;;;;;4994588;28;20038;-80
2023/09/10 11:25:07;;;;;;;13.05;8.20;;;27.50;99.90;;;;;;4985149;28;20039;-80
2023/09/10 11:27:34;;;;;;;13.38;8.23;;;27.60;99.90;;;;;;4991433;28;20062;-79
2023/09/10 11:30:19;;;;;;;12.40;8.48;;;27.70;99.90;;;;;;4993816;28;20129;-79
2023/09/10 11:32:45;;;;;;;11.82;7.72;;;27.80;99.90;;;;;;4996797;28;20048;-81
2023/09/10 11:35:17;;;;;;;9.45;8.25;;;28.00;99.90;;;;;;4999171;28;20039;-80
2023/09/10 11:37:50;;;;;;;11.25;7.80;;;28.10;99.90;;;;;;4995009;28;20096;-79
2023/09/10 11:40:17;;;;;;;;;;;28.20;99.90;;;;;;4980910;28;20046;-79
2023/09/10 11:42:46;;;;;;;10.88;7.70;;;28.30;99.90;;;;;;4996016;28;20018;-80
2023/09/10 11:45:13;;;;;;;8.90;6.95;;;28.40;99.90;;;;;;4998215;28;20121;-80
2023/09/10 11:47:42;;;;;;;9.55;7.57;;;28.50;99.90;;;;;;4997291;28;20042;-81
2023/09/10 11:50:09;;;;;;;17.05;8.05;;;28.70;99.90;;;;;;4995081;28;20038;-80
2023/09/10 11:52:36;;;;;;;12.18;7.80;;;28.80;99.90;;;;;;4995130;28;20070;-80
2023/09/10 11:55:03;;;;;;;12.30;7.15;;;28.90;99.90;;;;;;4978705;28;20034;-80
2023/09/10 11:57:29;;;;;;;10.38;6.90;;;29.00;99.90;;;;;;4988206;28;20039;-80
2023/09/10 11:59:55;;;;;;;11.00;6.57;;;29.10;99.90;;;;;;4996698;28;20042;-80
2023/09/10 12:02:21;;;;;;;10.80;6.63;;;29.10;99.90;;;;;;4995111;28;20226;-81
2023/09/10 12:04:47;;;;;;;8.38;6.80;;;29.20;99.90;;;;;;4998504;28;20053;-81
2023/09/10 12:07:12;;;;;;;10.10;6.88;;;29.30;99.90;;;;;;4997126;28;20045;-79
2023/09/10 12:09:38;;;;;;;11.38;6.95;;;29.50;99.90;;;;;;4993296;28;20058;-81
2023/09/10 12:12:08;;;;;;;9.70;6.65;;;29.60;99.90;;;;;;4998837;28;20034;-80
2023/09/10 12:14:35;;;;;;;9.35;6.65;;;29.60;99.90;;;;;;4981876;28;20141;-84
2023/09/10 12:17:00;;;;;;;14.70;6.68;;;29.70;99.90;;;;;;4987632;28;20035;-81
2023/09/10 12:19:26;;;;;;;10.73;6.45;;;29.80;99.90;;;;;;4991424;28;20463;-80
2023/09/10 12:21:52;;;;;;;11.30;6.82;;;29.90;99.90;;;;;;5000537;28;20170;-81
2023/09/10 12:24:18;;;;;;;9.82;6.22;;;30.00;99.90;;;;;;4995916;28;20097;-81
2023/09/10 12:26:44;;;;;;;13.68;6.47;;;30.10;99.90;;;;;;4998721;28;20383;-82
2023/09/10 12:29:11;;;;;;;11.43;6.53;;;30.20;99.90;;;;;;4992977;28;20133;-82